sensor_id;sensor_type;location;lat;lon;timestamp;P1;durP1;ratioP1;P2;durP2;ratioP2
15616;SDS011;7908;51.688;7.130;2023-06-14T00:00:39;5.10;;;3.57;;
15616;SDS011;7908;51.688;7.130;2023-06-14T00:03:10;5.03;;;3.67;;
15616;SDS011;7908;51.688;7.130;2023-06-14T00:05:44;7.33;;;3.83;;
15616;SDS011;7908;51.688;7.130;2023-06-14T00:08:14;3.70;;;3.20;;
15616;SDS011;7908;51.688;7.130;2023-06-14T00:10:45;6.50;;;3.90;;
15616;SDS011;7908;51.688;7.130;2023-06-14T00:13:15;5.97;;;3.30;;
15616;SDS011;7908;51.688;7.130;2023-06-14T00:15:45;6.10;;;3.53;;
15616;SDS011;7908;51.688;7.130;2023-06-14T00:18:14;4.83;;;3.47;;
15616;SDS011;7908;51.688;7.130;2023-06-14T00:20:44;4.87;;;3.40;;
15616;SDS011;7908;51.688;7.130;2023-06-14T00:23:13;6.07;;;3.83;;
15616;SDS011;7908;51.688;7.130;2023-06-14T00:25:42;5.40;;;3.73;;
15616;SDS011;7908;51.688;7.130;2023-06-14T00:28:12;4.87;;;3.67;;
15616;SDS011;7908;51.688;7.130;2023-06-14T00:30:42;5.73;;;3.40;;
15616;SDS011;7908;51.688;7.130;2023-06-14T00:33:13;6.00;;;3.17;;
15616;SDS011;7908;51.688;7.130;2023-06-14T00:35:42;4.20;;;3.00;;
15616;SDS011;7908;51.688;7.130;2023-06-14T00:38:11;6.17;;;3.73;;
15616;SDS011;7908;51.688;7.130;2023-06-14T00:40:40;4.90;;;3.03;;
15616;SDS011;7908;51.688;7.130;2023-06-14T00:43:09;6.43;;;3.30;;
15616;SDS011;7908;51.688;7.130;2023-06-14T00:45:38;6.13;;;3.17;;
15616;SDS011;7908;51.688;7.130;2023-06-14T00:48:09;6.40;;;3.37;;
15616;SDS011;7908;51.688;7.130;2023-06-14T00:50:39;3.40;;;3.03;;
15616;SDS011;7908;51.688;7.130;2023-06-14T00:53:08;3.50;;;3.13;;
15616;SDS011;7908;51.688;7.130;2023-06-14T00:55:37;4.00;;;3.20;;
15616;SDS011;7908;51.688;7.130;2023-06-14T00:58:06;6.43;;;3.57;;
15616;SDS011;7908;51.688;7.130;2023-06-14T01:00:36;7.20;;;3.30;;
15616;SDS011;7908;51.688;7.130;2023-06-14T01:03:05;4.33;;;3.40;;
15616;SDS011;7908;51.688;7.130;2023-06-14T01:05:40;4.37;;;3.30;;
15616;SDS011;7908;51.688;7.130;2023-06-14T01:08:14;5.93;;;3.33;;
15616;SDS011;7908;51.688;7.130;2023-06-14T01:10:51;3.90;;;3.30;;
15616;SDS011;7908;51.688;7.130;2023-06-14T01:13:27;4.23;;;3.17;;
15616;SDS011;7908;51.688;7.130;2023-06-14T01:16:00;5.80;;;3.30;;
15616;SDS011;7908;51.688;7.130;2023-06-14T01:18:30;4.77;;;3.03;;
15616;SDS011;7908;51.688;7.130;2023-06-14T01:21:00;4.33;;;3.23;;
15616;SDS011;7908;51.688;7.130;2023-06-14T01:23:33;6.07;;;3.20;;
15616;SDS011;7908;51.688;7.130;2023-06-14T01:26:02;6.40;;;3.90;;
15616;SDS011;7908;51.688;7.130;2023-06-14T01:28:32;3.67;;;2.90;;
15616;SDS011;7908;51.688;7.130;2023-06-14T01:31:02;4.50;;;3.00;;
15616;SDS011;7908;51.688;7.130;2023-06-14T01:33:32;3.77;;;3.23;;
15616;SDS011;7908;51.688;7.130;2023-06-14T01:36:02;3.40;;;3.10;;
15616;SDS011;7908;51.688;7.130;2023-06-14T01:38:36;3.03;;;2.53;;
15616;SDS011;7908;51.688;7.130;2023-06-14T01:41:05;4.60;;;3.43;;
15616;SDS011;7908;51.688;7.130;2023-06-14T01:43:35;3.97;;;3.53;;
15616;SDS011;7908;51.688;7.130;2023-06-14T01:46:04;4.13;;;3.37;;
15616;SDS011;7908;51.688;7.130;2023-06-14T01:48:34;4.37;;;3.20;;
15616;SDS011;7908;51.688;7.130;2023-06-14T01:51:03;6.07;;;3.03;;
15616;SDS011;7908;51.688;7.130;2023-06-14T01:53:32;5.60;;;3.27;;
15616;SDS011;7908;51.688;7.130;2023-06-14T01:56:02;3.70;;;2.97;;
15616;SDS011;7908;51.688;7.130;2023-06-14T01:58:32;3.60;;;3.07;;
15616;SDS011;7908;51.688;7.130;2023-06-14T02:01:00;5.73;;;3.20;;
15616;SDS011;7908;51.688;7.130;2023-06-14T02:03:29;5.40;;;3.10;;
15616;SDS011;7908;51.688;7.130;2023-06-14T02:05:59;4.73;;;3.33;;
15616;SDS011;7908;51.688;7.130;2023-06-14T02:08:28;5.43;;;3.00;;
15616;SDS011;7908;51.688;7.130;2023-06-14T02:10:57;9.67;;;3.20;;
15616;SDS011;7908;51.688;7.130;2023-06-14T02:13:27;3.40;;;2.80;;
15616;SDS011;7908;51.688;7.130;2023-06-14T02:15:56;3.67;;;3.00;;
15616;SDS011;7908;51.688;7.130;2023-06-14T02:18:26;4.53;;;2.83;;
15616;SDS011;7908;51.688;7.130;2023-06-14T02:20:55;4.00;;;2.97;;
15616;SDS011;7908;51.688;7.130;2023-06-14T02:23:24;6.10;;;2.97;;
15616;SDS011;7908;51.688;7.130;2023-06-14T02:25:53;4.17;;;2.93;;
15616;SDS011;7908;51.688;7.130;2023-06-14T02:28:21;4.83;;;3.13;;
15616;SDS011;7908;51.688;7.130;2023-06-14T02:30:52;5.60;;;2.80;;
15616;SDS011;7908;51.688;7.130;2023-06-14T02:33:22;5.20;;;3.03;;
15616;SDS011;7908;51.688;7.130;2023-06-14T02:35:52;6.57;;;3.10;;
15616;SDS011;7908;51.688;7.130;2023-06-14T02:38:20;7.10;;;2.80;;
15616;SDS011;7908;51.688;7.130;2023-06-14T02:40:49;4.97;;;3.07;;
15616;SDS011;7908;51.688;7.130;2023-06-14T02:43:18;5.33;;;3.30;;
15616;SDS011;7908;51.688;7.130;2023-06-14T02:45:47;5.60;;;3.23;;
15616;SDS011;7908;51.688;7.130;2023-06-14T02:48:17;4.23;;;2.77;;
15616;SDS011;7908;51.688;7.130;2023-06-14T02:50:46;5.37;;;3.17;;
15616;SDS011;7908;51.688;7.130;2023-06-14T02:53:14;5.10;;;3.00;;
15616;SDS011;7908;51.688;7.130;2023-06-14T02:55:44;4.37;;;2.73;;
15616;SDS011;7908;51.688;7.130;2023-06-14T02:58:13;4.57;;;3.00;;
15616;SDS011;7908;51.688;7.130;2023-06-14T03:00:42;5.47;;;2.90;;
15616;SDS011;7908;51.688;7.130;2023-06-14T03:03:11;3.00;;;2.67;;
15616;SDS011;7908;51.688;7.130;2023-06-14T03:05:43;3.93;;;2.60;;
15616;SDS011;7908;51.688;7.130;2023-06-14T03:08:14;4.37;;;2.80;;
15616;SDS011;7908;51.688;7.130;2023-06-14T03:10:46;3.10;;;2.73;;
15616;SDS011;7908;51.688;7.130;2023-06-14T03:13:15;3.20;;;2.90;;
15616;SDS011;7908;51.688;7.130;2023-06-14T03:15:47;6.90;;;2.87;;
15616;SDS011;7908;51.688;7.130;2023-06-14T03:18:17;4.33;;;3.00;;
15616;SDS011;7908;51.688;7.130;2023-06-14T03:20:47;6.60;;;3.07;;
15616;SDS011;7908;51.688;7.130;2023-06-14T03:23:18;4.60;;;2.80;;
15616;SDS011;7908;51.688;7.130;2023-06-14T03:25:47;4.63;;;3.00;;
15616;SDS011;7908;51.688;7.130;2023-06-14T03:28:17;3.13;;;2.77;;
15616;SDS011;7908;51.688;7.130;2023-06-14T03:30:45;3.40;;;3.10;;
15616;SDS011;7908;51.688;7.130;2023-06-14T03:33:15;5.43;;;3.20;;
15616;SDS011;7908;51.688;7.130;2023-06-14T03:35:43;4.10;;;2.47;;
15616;SDS011;7908;51.688;7.130;2023-06-14T03:38:13;3.33;;;2.80;;
15616;SDS011;7908;51.688;7.130;2023-06-14T03:40:42;5.43;;;2.97;;
15616;SDS011;7908;51.688;7.130;2023-06-14T03:43:12;4.30;;;2.90;;
15616;SDS011;7908;51.688;7.130;2023-06-14T03:45:41;2.97;;;2.60;;
15616;SDS011;7908;51.688;7.130;2023-06-14T03:48:10;3.73;;;2.53;;
15616;SDS011;7908;51.688;7.130;2023-06-14T03:50:39;5.50;;;2.90;;
15616;SDS011;7908;51.688;7.130;2023-06-14T03:53:09;7.00;;;2.73;;
15616;SDS011;7908;51.688;7.130;2023-06-14T03:55:39;6.17;;;3.00;;
15616;SDS011;7908;51.688;7.130;2023-06-14T03:58:11;4.30;;;3.10;;
15616;SDS011;7908;51.688;7.130;2023-06-14T04:00:41;6.80;;;2.87;;
15616;SDS011;7908;51.688;7.130;2023-06-14T04:03:10;6.03;;;2.70;;
15616;SDS011;7908;51.688;7.130;2023-06-14T04:05:42;3.80;;;2.90;;
15616;SDS011;7908;51.688;7.130;2023-06-14T04:08:11;9.40;;;5.07;;
15616;SDS011;7908;51.688;7.130;2023-06-14T04:10:42;5.50;;;2.80;;
15616;SDS011;7908;51.688;7.130;2023-06-14T04:13:11;4.80;;;2.87;;
15616;SDS011;7908;51.688;7.130;2023-06-14T04:15:40;7.03;;;2.80;;
15616;SDS011;7908;51.688;7.130;2023-06-14T04:18:10;4.70;;;2.73;;
15616;SDS011;7908;51.688;7.130;2023-06-14T04:20:39;3.57;;;2.80;;
15616;SDS011;7908;51.688;7.130;2023-06-14T04:23:11;5.77;;;2.70;;
15616;SDS011;7908;51.688;7.130;2023-06-14T04:25:43;6.90;;;2.80;;
15616;SDS011;7908;51.688;7.130;2023-06-14T04:28:13;2.90;;;2.30;;
15616;SDS011;7908;51.688;7.130;2023-06-14T04:30:43;3.90;;;2.70;;
15616;SDS011;7908;51.688;7.130;2023-06-14T04:33:14;4.83;;;2.63;;
15616;SDS011;7908;51.688;7.130;2023-06-14T04:35:44;2.97;;;2.30;;
15616;SDS011;7908;51.688;7.130;2023-06-14T04:38:15;7.17;;;2.63;;
15616;SDS011;7908;51.688;7.130;2023-06-14T04:40:47;4.20;;;2.70;;
15616;SDS011;7908;51.688;7.130;2023-06-14T04:43:15;3.93;;;2.77;;
15616;SDS011;7908;51.688;7.130;2023-06-14T04:45:45;6.00;;;2.60;;
15616;SDS011;7908;51.688;7.130;2023-06-14T04:48:14;4.90;;;2.60;;
15616;SDS011;7908;51.688;7.130;2023-06-14T04:50:46;3.83;;;2.40;;
15616;SDS011;7908;51.688;7.130;2023-06-14T04:53:26;5.90;;;3.00;;
15616;SDS011;7908;51.688;7.130;2023-06-14T04:56:04;4.83;;;2.60;;
15616;SDS011;7908;51.688;7.130;2023-06-14T04:58:33;6.87;;;2.53;;
15616;SDS011;7908;51.688;7.130;2023-06-14T05:01:03;2.93;;;2.37;;
15616;SDS011;7908;51.688;7.130;2023-06-14T05:03:32;4.90;;;2.63;;
15616;SDS011;7908;51.688;7.130;2023-06-14T05:06:01;4.40;;;2.37;;
15616;SDS011;7908;51.688;7.130;2023-06-14T05:08:30;7.03;;;2.23;;
15616;SDS011;7908;51.688;7.130;2023-06-14T05:10:59;4.23;;;2.43;;
15616;SDS011;7908;51.688;7.130;2023-06-14T05:13:29;4.30;;;2.95;;
15616;SDS011;7908;51.688;7.130;2023-06-14T05:16:00;7.63;;;2.57;;
15616;SDS011;7908;51.688;7.130;2023-06-14T05:18:29;4.22;;;2.40;;
15616;SDS011;7908;51.688;7.130;2023-06-14T05:20:57;6.70;;;2.20;;
15616;SDS011;7908;51.688;7.130;2023-06-14T05:23:26;3.25;;;2.30;;
15616;SDS011;7908;51.688;7.130;2023-06-14T05:25:55;5.47;;;2.40;;
15616;SDS011;7908;51.688;7.130;2023-06-14T05:28:24;5.95;;;2.10;;
15616;SDS011;7908;51.688;7.130;2023-06-14T05:30:54;4.80;;;2.40;;
15616;SDS011;7908;51.688;7.130;2023-06-14T05:33:23;5.43;;;2.28;;
15616;SDS011;7908;51.688;7.130;2023-06-14T05:35:52;5.30;;;2.33;;
15616;SDS011;7908;51.688;7.130;2023-06-14T05:38:21;4.07;;;2.30;;
15616;SDS011;7908;51.688;7.130;2023-06-14T05:40:50;3.17;;;2.30;;
15616;SDS011;7908;51.688;7.130;2023-06-14T05:43:20;3.05;;;2.20;;
15616;SDS011;7908;51.688;7.130;2023-06-14T05:45:48;2.78;;;2.20;;
15616;SDS011;7908;51.688;7.130;2023-06-14T05:48:19;6.70;;;2.45;;
15616;SDS011;7908;51.688;7.130;2023-06-14T05:50:48;7.32;;;2.58;;
15616;SDS011;7908;51.688;7.130;2023-06-14T05:53:16;4.93;;;2.70;;
15616;SDS011;7908;51.688;7.130;2023-06-14T05:55:45;3.65;;;2.13;;
15616;SDS011;7908;51.688;7.130;2023-06-14T05:58:14;6.60;;;2.40;;
15616;SDS011;7908;51.688;7.130;2023-06-14T06:00:43;3.45;;;2.20;;
15616;SDS011;7908;51.688;7.130;2023-06-14T06:03:12;4.72;;;2.03;;
15616;SDS011;7908;51.688;7.130;2023-06-14T06:05:43;4.68;;;2.58;;
15616;SDS011;7908;51.688;7.130;2023-06-14T06:08:11;4.65;;;2.30;;
15616;SDS011;7908;51.688;7.130;2023-06-14T06:10:41;5.45;;;2.15;;
15616;SDS011;7908;51.688;7.130;2023-06-14T06:13:10;3.60;;;2.13;;
15616;SDS011;7908;51.688;7.130;2023-06-14T06:15:39;2.10;;;1.90;;
15616;SDS011;7908;51.688;7.130;2023-06-14T06:18:07;5.07;;;2.20;;
15616;SDS011;7908;51.688;7.130;2023-06-14T06:20:36;4.90;;;2.10;;
15616;SDS011;7908;51.688;7.130;2023-06-14T06:23:07;3.80;;;2.13;;
15616;SDS011;7908;51.688;7.130;2023-06-14T06:25:36;2.78;;;2.10;;
15616;SDS011;7908;51.688;7.130;2023-06-14T06:28:05;2.97;;;1.90;;
15616;SDS011;7908;51.688;7.130;2023-06-14T06:30:35;3.13;;;2.05;;
15616;SDS011;7908;51.688;7.130;2023-06-14T06:33:04;2.15;;;1.95;;
15616;SDS011;7908;51.688;7.130;2023-06-14T06:35:33;7.43;;;2.17;;
15616;SDS011;7908;51.688;7.130;2023-06-14T06:38:04;3.40;;;2.63;;
15616;SDS011;7908;51.688;7.130;2023-06-14T06:40:35;3.53;;;2.25;;
15616;SDS011;7908;51.688;7.130;2023-06-14T06:43:04;4.63;;;2.15;;
15616;SDS011;7908;51.688;7.130;2023-06-14T06:45:33;3.00;;;1.90;;
15616;SDS011;7908;51.688;7.130;2023-06-14T06:48:05;4.00;;;2.30;;
15616;SDS011;7908;51.688;7.130;2023-06-14T06:50:34;1.98;;;1.83;;
15616;SDS011;7908;51.688;7.130;2023-06-14T06:53:03;3.65;;;2.10;;
15616;SDS011;7908;51.688;7.130;2023-06-14T06:55:35;4.68;;;2.10;;
15616;SDS011;7908;51.688;7.130;2023-06-14T06:58:04;3.60;;;1.80;;
15616;SDS011;7908;51.688;7.130;2023-06-14T07:00:33;3.95;;;2.08;;
15616;SDS011;7908;51.688;7.130;2023-06-14T07:03:02;3.40;;;1.92;;
15616;SDS011;7908;51.688;7.130;2023-06-14T07:05:31;4.75;;;2.00;;
15616;SDS011;7908;51.688;7.130;2023-06-14T07:08:01;3.15;;;1.92;;
15616;SDS011;7908;51.688;7.130;2023-06-14T07:10:30;2.67;;;2.25;;
15616;SDS011;7908;51.688;7.130;2023-06-14T07:13:00;2.85;;;1.80;;
15616;SDS011;7908;51.688;7.130;2023-06-14T07:15:30;3.70;;;1.88;;
15616;SDS011;7908;51.688;7.130;2023-06-14T07:18:03;3.03;;;1.73;;
15616;SDS011;7908;51.688;7.130;2023-06-14T07:20:35;2.33;;;1.70;;
15616;SDS011;7908;51.688;7.130;2023-06-14T07:23:05;3.45;;;1.80;;
15616;SDS011;7908;51.688;7.130;2023-06-14T07:25:34;4.65;;;2.03;;
15616;SDS011;7908;51.688;7.130;2023-06-14T07:28:04;6.00;;;1.98;;
15616;SDS011;7908;51.688;7.130;2023-06-14T07:30:34;2.00;;;1.58;;
15616;SDS011;7908;51.688;7.130;2023-06-14T07:33:04;2.47;;;1.88;;
15616;SDS011;7908;51.688;7.130;2023-06-14T07:35:33;4.43;;;1.70;;
15616;SDS011;7908;51.688;7.130;2023-06-14T07:38:02;3.15;;;1.90;;
15616;SDS011;7908;51.688;7.130;2023-06-14T07:40:32;3.42;;;1.60;;
15616;SDS011;7908;51.688;7.130;2023-06-14T07:43:01;3.85;;;1.80;;
15616;SDS011;7908;51.688;7.130;2023-06-14T07:45:32;3.53;;;1.65;;
15616;SDS011;7908;51.688;7.130;2023-06-14T07:48:01;2.40;;;1.95;;
15616;SDS011;7908;51.688;7.130;2023-06-14T07:50:31;3.22;;;1.50;;
15616;SDS011;7908;51.688;7.130;2023-06-14T07:53:00;3.30;;;1.92;;
15616;SDS011;7908;51.688;7.130;2023-06-14T07:55:30;3.55;;;1.90;;
15616;SDS011;7908;51.688;7.130;2023-06-14T07:58:18;3.15;;;1.70;;
15616;SDS011;7908;51.688;7.130;2023-06-14T08:00:49;6.10;;;2.10;;
15616;SDS011;7908;51.688;7.130;2023-06-14T08:03:18;4.00;;;1.77;;
15616;SDS011;7908;51.688;7.130;2023-06-14T08:05:49;2.80;;;1.70;;
15616;SDS011;7908;51.688;7.130;2023-06-14T08:08:19;1.60;;;1.50;;
15616;SDS011;7908;51.688;7.130;2023-06-14T08:10:48;4.40;;;1.73;;
15616;SDS011;7908;51.688;7.130;2023-06-14T08:13:17;2.97;;;1.67;;
15616;SDS011;7908;51.688;7.130;2023-06-14T08:15:48;4.53;;;1.98;;
15616;SDS011;7908;51.688;7.130;2023-06-14T08:18:18;2.53;;;1.30;;
15616;SDS011;7908;51.688;7.130;2023-06-14T08:20:47;2.15;;;1.52;;
15616;SDS011;7908;51.688;7.130;2023-06-14T08:23:16;1.58;;;1.48;;
15616;SDS011;7908;51.688;7.130;2023-06-14T08:25:47;3.13;;;1.38;;
15616;SDS011;7908;51.688;7.130;2023-06-14T08:28:16;1.65;;;1.50;;
15616;SDS011;7908;51.688;7.130;2023-06-14T08:30:46;2.65;;;1.55;;
15616;SDS011;7908;51.688;7.130;2023-06-14T08:33:17;2.17;;;1.40;;
15616;SDS011;7908;51.688;7.130;2023-06-14T08:35:47;1.98;;;1.48;;
15616;SDS011;7908;51.688;7.130;2023-06-14T08:38:16;2.38;;;1.33;;
15616;SDS011;7908;51.688;7.130;2023-06-14T08:40:45;3.88;;;1.58;;
15616;SDS011;7908;51.688;7.130;2023-06-14T08:43:18;3.15;;;1.40;;
15616;SDS011;7908;51.688;7.130;2023-06-14T08:45:47;3.88;;;1.88;;
15616;SDS011;7908;51.688;7.130;2023-06-14T08:48:24;1.27;;;1.10;;
15616;SDS011;7908;51.688;7.130;2023-06-14T08:50:55;1.75;;;1.20;;
15616;SDS011;7908;51.688;7.130;2023-06-14T08:53:29;1.80;;;1.13;;
15616;SDS011;7908;51.688;7.130;2023-06-14T08:56:03;1.33;;;1.20;;
15616;SDS011;7908;51.688;7.130;2023-06-14T08:58:34;1.50;;;1.10;;
15616;SDS011;7908;51.688;7.130;2023-06-14T09:01:04;3.03;;;1.20;;
15616;SDS011;7908;51.688;7.130;2023-06-14T09:03:36;1.38;;;1.10;;
15616;SDS011;7908;51.688;7.130;2023-06-14T09:06:07;1.00;;;0.82;;
15616;SDS011;7908;51.688;7.130;2023-06-14T09:08:40;2.58;;;1.17;;
15616;SDS011;7908;51.688;7.130;2023-06-14T09:11:11;0.90;;;0.80;;
15616;SDS011;7908;51.688;7.130;2023-06-14T09:13:41;1.55;;;1.13;;
15616;SDS011;7908;51.688;7.130;2023-06-14T09:16:10;1.55;;;1.00;;
15616;SDS011;7908;51.688;7.130;2023-06-14T09:18:42;1.80;;;1.00;;
15616;SDS011;7908;51.688;7.130;2023-06-14T09:21:15;3.63;;;0.88;;
15616;SDS011;7908;51.688;7.130;2023-06-14T09:23:45;1.48;;;0.95;;
15616;SDS011;7908;51.688;7.130;2023-06-14T09:26:16;1.13;;;1.02;;
15616;SDS011;7908;51.688;7.130;2023-06-14T09:28:46;3.67;;;0.93;;
15616;SDS011;7908;51.688;7.130;2023-06-14T09:31:18;1.20;;;0.90;;
15616;SDS011;7908;51.688;7.130;2023-06-14T09:33:50;2.75;;;0.90;;
15616;SDS011;7908;51.688;7.130;2023-06-14T09:36:22;0.98;;;0.93;;
15616;SDS011;7908;51.688;7.130;2023-06-14T09:38:55;1.77;;;0.90;;
15616;SDS011;7908;51.688;7.130;2023-06-14T09:41:30;2.50;;;0.93;;
15616;SDS011;7908;51.688;7.130;2023-06-14T09:44:01;2.33;;;0.80;;
15616;SDS011;7908;51.688;7.130;2023-06-14T09:46:36;0.70;;;0.70;;
15616;SDS011;7908;51.688;7.130;2023-06-14T09:49:07;2.83;;;0.80;;
15616;SDS011;7908;51.688;7.130;2023-06-14T09:51:37;1.38;;;0.80;;
15616;SDS011;7908;51.688;7.130;2023-06-14T09:54:13;1.38;;;0.80;;
15616;SDS011;7908;51.688;7.130;2023-06-14T09:56:45;1.45;;;0.90;;
15616;SDS011;7908;51.688;7.130;2023-06-14T09:59:17;1.52;;;0.82;;
15616;SDS011;7908;51.688;7.130;2023-06-14T10:01:56;1.15;;;0.98;;
15616;SDS011;7908;51.688;7.130;2023-06-14T10:04:31;1.23;;;0.90;;
15616;SDS011;7908;51.688;7.130;2023-06-14T10:07:02;0.88;;;0.60;;
15616;SDS011;7908;51.688;7.130;2023-06-14T10:09:33;1.25;;;0.80;;
15616;SDS011;7908;51.688;7.130;2023-06-14T10:12:03;1.08;;;0.80;;
15616;SDS011;7908;51.688;7.130;2023-06-14T10:14:33;2.53;;;1.00;;
15616;SDS011;7908;51.688;7.130;2023-06-14T10:17:04;0.98;;;0.88;;
15616;SDS011;7908;51.688;7.130;2023-06-14T10:19:40;3.25;;;0.80;;
15616;SDS011;7908;51.688;7.130;2023-06-14T10:22:19;2.17;;;0.82;;
15616;SDS011;7908;51.688;7.130;2023-06-14T10:24:54;2.20;;;0.90;;
15616;SDS011;7908;51.688;7.130;2023-06-14T10:27:24;1.45;;;0.60;;
15616;SDS011;7908;51.688;7.130;2023-06-14T10:30:03;2.38;;;0.90;;
15616;SDS011;7908;51.688;7.130;2023-06-14T10:35:39;2.45;;;0.85;;
15616;SDS011;7908;51.688;7.130;2023-06-14T10:38:11;0.95;;;0.80;;
15616;SDS011;7908;51.688;7.130;2023-06-14T10:40:40;1.10;;;0.82;;
15616;SDS011;7908;51.688;7.130;2023-06-14T10:43:21;0.73;;;0.70;;
15616;SDS011;7908;51.688;7.130;2023-06-14T10:48:43;2.65;;;1.02;;
15616;SDS011;7908;51.688;7.130;2023-06-14T10:51:16;1.13;;;1.00;;
15616;SDS011;7908;51.688;7.130;2023-06-14T10:53:47;1.58;;;1.02;;
15616;SDS011;7908;51.688;7.130;2023-06-14T10:56:26;1.63;;;0.95;;
15616;SDS011;7908;51.688;7.130;2023-06-14T10:58:57;1.00;;;0.90;;
15616;SDS011;7908;51.688;7.130;2023-06-14T11:01:32;1.52;;;1.25;;
15616;SDS011;7908;51.688;7.130;2023-06-14T11:04:07;2.17;;;1.10;;
15616;SDS011;7908;51.688;7.130;2023-06-14T11:06:48;1.60;;;1.10;;
15616;SDS011;7908;51.688;7.130;2023-06-14T11:12:17;4.63;;;1.00;;
15616;SDS011;7908;51.688;7.130;2023-06-14T11:14:47;1.27;;;1.17;;
15616;SDS011;7908;51.688;7.130;2023-06-14T11:17:16;1.02;;;0.90;;
15616;SDS011;7908;51.688;7.130;2023-06-14T11:19:46;2.17;;;0.80;;
15616;SDS011;7908;51.688;7.130;2023-06-14T11:22:17;3.17;;;1.00;;
15616;SDS011;7908;51.688;7.130;2023-06-14T11:24:46;2.35;;;0.90;;
15616;SDS011;7908;51.688;7.130;2023-06-14T11:27:15;2.72;;;1.17;;
15616;SDS011;7908;51.688;7.130;2023-06-14T11:29:47;2.15;;;0.95;;
15616;SDS011;7908;51.688;7.130;2023-06-14T11:32:17;1.75;;;0.85;;
15616;SDS011;7908;51.688;7.130;2023-06-14T11:34:47;2.95;;;0.90;;
15616;SDS011;7908;51.688;7.130;2023-06-14T11:37:19;2.38;;;1.00;;
15616;SDS011;7908;51.688;7.130;2023-06-14T11:39:51;3.03;;;1.15;;
15616;SDS011;7908;51.688;7.130;2023-06-14T11:42:20;1.40;;;1.10;;
15616;SDS011;7908;51.688;7.130;2023-06-14T11:44:50;3.70;;;1.30;;
15616;SDS011;7908;51.688;7.130;2023-06-14T11:47:33;1.15;;;0.90;;
15616;SDS011;7908;51.688;7.130;2023-06-14T11:50:05;2.88;;;0.90;;
15616;SDS011;7908;51.688;7.130;2023-06-14T11:52:37;2.20;;;1.20;;
15616;SDS011;7908;51.688;7.130;2023-06-14T11:55:07;2.50;;;0.80;;
15616;SDS011;7908;51.688;7.130;2023-06-14T11:57:37;2.72;;;1.23;;
15616;SDS011;7908;51.688;7.130;2023-06-14T12:00:07;2.13;;;1.20;;
15616;SDS011;7908;51.688;7.130;2023-06-14T12:02:42;4.03;;;2.00;;
15616;SDS011;7908;51.688;7.130;2023-06-14T12:05:11;4.03;;;1.00;;
15616;SDS011;7908;51.688;7.130;2023-06-14T12:07:44;3.85;;;1.15;;
15616;SDS011;7908;51.688;7.130;2023-06-14T12:10:14;2.40;;;1.15;;
15616;SDS011;7908;51.688;7.130;2023-06-14T12:12:44;1.42;;;1.10;;
15616;SDS011;7908;51.688;7.130;2023-06-14T12:19:08;4.75;;;1.17;;
15616;SDS011;7908;51.688;7.130;2023-06-14T12:21:41;1.20;;;1.05;;
15616;SDS011;7908;51.688;7.130;2023-06-14T12:24:13;3.92;;;1.17;;
15616;SDS011;7908;51.688;7.130;2023-06-14T12:26:43;1.45;;;1.25;;
15616;SDS011;7908;51.688;7.130;2023-06-14T12:29:16;1.20;;;1.10;;
15616;SDS011;7908;51.688;7.130;2023-06-14T12:31:48;1.42;;;1.10;;
15616;SDS011;7908;51.688;7.130;2023-06-14T12:34:18;4.00;;;1.42;;
15616;SDS011;7908;51.688;7.130;2023-06-14T12:36:47;2.40;;;1.33;;
15616;SDS011;7908;51.688;7.130;2023-06-14T12:39:18;3.35;;;1.40;;
15616;SDS011;7908;51.688;7.130;2023-06-14T12:41:47;2.15;;;1.20;;
15616;SDS011;7908;51.688;7.130;2023-06-14T12:44:16;15.40;;;2.38;;
15616;SDS011;7908;51.688;7.130;2023-06-14T12:46:45;3.05;;;1.38;;
15616;SDS011;7908;51.688;7.130;2023-06-14T12:49:15;59.95;;;7.90;;
15616;SDS011;7908;51.688;7.130;2023-06-14T12:51:46;8.55;;;1.50;;
15616;SDS011;7908;51.688;7.130;2023-06-14T12:54:18;1.70;;;1.60;;
15616;SDS011;7908;51.688;7.130;2023-06-14T12:57:06;3.28;;;1.30;;
15616;SDS011;7908;51.688;7.130;2023-06-14T12:59:36;2.58;;;1.65;;
15616;SDS011;7908;51.688;7.130;2023-06-14T13:02:13;2.22;;;1.33;;
15616;SDS011;7908;51.688;7.130;2023-06-14T13:04:44;1.85;;;1.40;;
15616;SDS011;7908;51.688;7.130;2023-06-14T13:07:14;3.47;;;1.30;;
15616;SDS011;7908;51.688;7.130;2023-06-14T13:09:45;3.88;;;1.73;;
15616;SDS011;7908;51.688;7.130;2023-06-14T13:12:14;22.38;;;3.65;;
15616;SDS011;7908;51.688;7.130;2023-06-14T13:14:44;12.18;;;2.55;;
15616;SDS011;7908;51.688;7.130;2023-06-14T13:17:13;4.35;;;1.38;;
15616;SDS011;7908;51.688;7.130;2023-06-14T13:19:45;3.40;;;1.70;;
15616;SDS011;7908;51.688;7.130;2023-06-14T13:22:14;5.50;;;1.50;;
15616;SDS011;7908;51.688;7.130;2023-06-14T13:24:45;3.60;;;1.33;;
15616;SDS011;7908;51.688;7.130;2023-06-14T13:27:17;1.52;;;1.25;;
15616;SDS011;7908;51.688;7.130;2023-06-14T13:29:46;2.65;;;1.48;;
15616;SDS011;7908;51.688;7.130;2023-06-14T13:32:16;2.00;;;1.45;;
15616;SDS011;7908;51.688;7.130;2023-06-14T13:34:46;1.42;;;1.25;;
15616;SDS011;7908;51.688;7.130;2023-06-14T13:37:15;1.92;;;1.42;;
15616;SDS011;7908;51.688;7.130;2023-06-14T13:39:46;2.17;;;1.98;;
15616;SDS011;7908;51.688;7.130;2023-06-14T13:42:15;16.75;;;3.22;;
15616;SDS011;7908;51.688;7.130;2023-06-14T14:29:17;2.40;;;1.88;;
15616;SDS011;7908;51.688;7.130;2023-06-14T14:31:46;2.47;;;1.50;;
15616;SDS011;7908;51.688;7.130;2023-06-14T14:34:34;1.88;;;1.70;;
15616;SDS011;7908;51.688;7.130;2023-06-14T14:37:22;2.70;;;1.60;;
15616;SDS011;7908;51.688;7.130;2023-06-14T14:40:09;1.73;;;1.63;;
15616;SDS011;7908;51.688;7.130;2023-06-14T14:42:39;3.17;;;1.60;;
15616;SDS011;7908;51.688;7.130;2023-06-14T14:45:10;3.25;;;1.98;;
15616;SDS011;7908;51.688;7.130;2023-06-14T14:47:40;3.83;;;1.70;;
15616;SDS011;7908;51.688;7.130;2023-06-14T14:50:10;3.15;;;1.60;;
15616;SDS011;7908;51.688;7.130;2023-06-14T14:52:40;1.70;;;1.50;;
15616;SDS011;7908;51.688;7.130;2023-06-14T14:55:09;2.35;;;1.70;;
15616;SDS011;7908;51.688;7.130;2023-06-14T14:57:39;3.33;;;1.67;;
15616;SDS011;7908;51.688;7.130;2023-06-14T15:00:10;3.65;;;2.10;;
15616;SDS011;7908;51.688;7.130;2023-06-14T15:02:40;8.57;;;1.80;;
15616;SDS011;7908;51.688;7.130;2023-06-14T15:05:10;1.92;;;1.60;;
15616;SDS011;7908;51.688;7.130;2023-06-14T15:07:40;1.70;;;1.50;;
15616;SDS011;7908;51.688;7.130;2023-06-14T15:10:11;3.78;;;2.00;;
15616;SDS011;7908;51.688;7.130;2023-06-14T15:12:41;7.82;;;1.92;;
15616;SDS011;7908;51.688;7.130;2023-06-14T15:15:15;2.83;;;1.70;;
15616;SDS011;7908;51.688;7.130;2023-06-14T15:17:45;2.72;;;1.48;;
15616;SDS011;7908;51.688;7.130;2023-06-14T15:20:15;3.65;;;1.95;;
15616;SDS011;7908;51.688;7.130;2023-06-14T15:22:45;6.15;;;1.70;;
15616;SDS011;7908;51.688;7.130;2023-06-14T15:25:18;5.28;;;1.92;;
15616;SDS011;7908;51.688;7.130;2023-06-14T15:27:48;4.82;;;1.80;;
15616;SDS011;7908;51.688;7.130;2023-06-14T15:30:20;2.17;;;1.45;;
15616;SDS011;7908;51.688;7.130;2023-06-14T15:32:50;20.27;;;2.22;;
15616;SDS011;7908;51.688;7.130;2023-06-14T15:35:24;7.95;;;2.03;;
15616;SDS011;7908;51.688;7.130;2023-06-14T15:37:55;2.15;;;1.70;;
15616;SDS011;7908;51.688;7.130;2023-06-14T15:40:25;1.67;;;1.52;;
15616;SDS011;7908;51.688;7.130;2023-06-14T15:42:56;1.80;;;1.70;;
15616;SDS011;7908;51.688;7.130;2023-06-14T15:45:28;2.75;;;1.60;;
15616;SDS011;7908;51.688;7.130;2023-06-14T15:47:58;2.95;;;1.70;;
15616;SDS011;7908;51.688;7.130;2023-06-14T15:50:28;4.85;;;1.77;;
15616;SDS011;7908;51.688;7.130;2023-06-14T15:53:05;4.28;;;1.80;;
15616;SDS011;7908;51.688;7.130;2023-06-14T15:55:34;3.58;;;1.70;;
15616;SDS011;7908;51.688;7.130;2023-06-14T15:58:05;2.45;;;2.00;;
15616;SDS011;7908;51.688;7.130;2023-06-14T16:00:37;2.95;;;1.98;;
15616;SDS011;7908;51.688;7.130;2023-06-14T16:03:06;2.95;;;1.73;;
15616;SDS011;7908;51.688;7.130;2023-06-14T16:05:36;1.90;;;1.80;;
15616;SDS011;7908;51.688;7.130;2023-06-14T16:08:06;7.95;;;2.08;;
15616;SDS011;7908;51.688;7.130;2023-06-14T16:11:04;2.90;;;2.25;;
15616;SDS011;7908;51.688;7.130;2023-06-14T16:13:34;3.35;;;1.80;;
15616;SDS011;7908;51.688;7.130;2023-06-14T16:16:05;5.07;;;1.90;;
15616;SDS011;7908;51.688;7.130;2023-06-14T16:18:36;3.13;;;2.00;;